AirNav   Air Wisconsin Up To $57,000 Bonus
 
 1173 users online  

3TA5 Blanco Landing Airport
Blanco, Texas, USA

GOING TO BLANCO?


FAA INFORMATION EFFECTIVE 02 JANUARY 2020

Location

FAA Identifier: 3TA5
Lat/Long: 30-07-20.8800N 098-22-29.2200W
30-07.348000N 098-22.487000W
30.1224667,-98.3747833
(estimated)
Elevation: 1460 ft. / 445 m (estimated)
Variation: 07E (1985)
From city: 3 miles NE of BLANCO, TX
Time zone: UTC -6 (UTC -5 during Daylight Saving Time)
Zip code: 78606

Airport Operations

Airport use: Private use. Permission required prior to landing
Activation date: 03/1981
Control tower: no
ARTCC: HOUSTON CENTER
FSS: SAN ANGELO FLIGHT SERVICE STATION
Attendance: UNATNDD
Wind indicator: yes
Segmented circle: no

Airport Communications

CTAF: 122.9

Nearby radio navigation aids

VOR radial/distance  VOR name  Freq  Var
STVr098/17.9STONEWALL VORTAC113.8008E
SATr001/29.1SAN ANTONIO VORTAC116.8008E
RNDr348/36.5RANDOLPH VORTAC112.3005E

Airport Services

Runway Information

Runway 1/19

Dimensions: 3450 x 27 ft. / 1052 x 8 m
Surface: asphalt
RUNWAY 1  RUNWAY 19
Traffic pattern: leftleft

Airport Ownership and Management from official FAA records

Ownership: Privately-owned
Owner: THE LANDING P.O.A.
3238 HWY 281 N
BLANCO, TX 78606
Phone (510) 910-3269
Manager: ROBERT GARCIA JR
3238 HWY 281 N
BLANCO, TX 78606
Phone (915) 525-7792
OTR (512) 461-5158

Airport Operational Statistics

Aircraft based on the field: 9
Single engine airplanes: 8
Helicopters: 1
    

Additional Remarks

FOR CD CTC HOUSTON ARTCC AT 281-230-5622.
RCMD OVER-FLY FLD TO INSURE RWY CLEAR OF WILDLIFE & MAINT CREWS AND TO CHECK WIND DRCTN FOR LNDG.
TALL TREES AT SOUTH AER TO INSURE PROPER CLNC.

Instrument Procedures

There are no published instrument procedures at 3TA5.

Some nearby airports with instrument procedures:

3R9 - Lakeway Airpark (24 nm NE)
T82 - Gillespie County Airport (29 nm W)
5C1 - Boerne Stage Field Airport (29 nm SW)
KHYI - San Marcos Regional Airport (30 nm SE)
KBAZ - New Braunfels Regional Airport (30 nm SE)
 
Loc | Ops | Rwys | IFR | FBO | Links
Com | Nav | Svcs | Stats | Notes
Area around 3TA5 (Blanco Landing Airport)
 
Road maps at: MapQuest Bing Google
 
Aerial photo
WARNING: Photo may not be current or correct
Aerial photo of 3TA5 (Blanco Landing Airport)
Photo taken 18-Jul-2017
looking south.

Do you have a better or more recent aerial photo of Blanco Landing Airport that you would like to share? If so, please send us your photo.

 
Sectional chart

 
Airport distance calculator
Flying to Blanco Landing Airport? Find the distance to fly.

From to 3TA5

Sunrise and sunset
Times for 26-Jan-2020
 Local
(UTC-6)
 Zulu
(UTC)
Morning civil twilight07:0313:03
Sunrise07:2813:28
Sunset18:0400:04
Evening civil twilight18:2900:29

Current date and time
Zulu (UTC)  26-Jan-2020 18:15:36
Local (UTC-6)  26-Jan-2020 12:15:36
 
METAR
KDZB 
24nm N 
261726Z AUTO 34007KT 10SM CLR 17/09 A3007 RMK AO2
KT82 
29nm W 
261755Z AUTO 04004KT 10SM CLR 19/06 A3005 RMK AO2 T01900057 10190 20066
K5C1 
29nm SW 
261755Z AUTO 00000KT 10SM CLR 18/08 A3005 RMK AO1
KBAZ 
30nm SE 
261751Z VRB04KT 10SM CLR 22/12 A3001 RMK AO2 SLP158 T02170117 10217 20117 50002
KHYI 
30nm SE 
261756Z 36009KT 10SM CLR 21/12 A3003 RMK AO2 SLP163 T02110117 10211 20094 50001
KRYW 
31nm NE 
261755Z AUTO 27007KT 10SM CLR 19/11 A3003 RMK AO2 T01850106 10190 20111
KSAT 
36nm S 
261751Z 29003KT 10SM FEW250 21/11 A3003 RMK AO2 SLP156 T02060111 10211 20122 50003 $
KAUS 
36nm E 
261753Z 32006KT 10SM FEW250 20/11 A3002 RMK AO2 SLP160 T02000111 10206 20078 50002 $
KATT 
37nm E 
261751Z AUTO VRB04KT 10SM CLR 21/11 A3003 RMK AO2 SLP163 T02060106 10206 20133 50003
KRND 
37nm S 
261756Z AUTO 28003KT 10SM CLR 20/12 A3002 RMK AO2 SLP162 T02020119 10203 20121 50002
TAF
KSAT 
36nm S 
261331Z 2614/2718 30003KT 1SM BR FEW010 FEW250 FM261430 34008KT P6SM SCT250 FM270900 01004KT 3SM BR FEW004 FEW250 FM271200 02002KT 1/2SM FG OVC004
KAUS 
36nm E 
261740Z 2618/2724 34008KT P6SM FEW250 FM271200 00000KT 1SM BR SCT004 FM271400 00000KT 3SM BR BKN035 FM271600 VRB04KT P6SM SCT200
NOTAMs
Click for the latest NOTAMs
NOTAMs are issued by the DoD/FAA and will open in a separate window not controlled by AirNav.

 

 
 

Would you like to see your business listed on this page?

 If your business provides an interesting product or service to pilots, flight crews, aircraft, or users of the Blanco Landing Airport, you should consider listing it here.  To start the listing process, click on the button below
 
Add a business
 

Other Pages about Blanco Landing Airport

Update a link
 
Copyright © AirNav, LLC. All rights reserved. Privacy Policy  Contact